SBPA/POA METAR and TAF weather

Enter ICAO airport designator
Station Type Date Time Source
SBPA METAR 2018/12/19 10:00 UTC NOAA

SBPA 191000Z 08009KT 9999 BKN009 OVC035 22/21 Q1014


Station Type Date Time Source
SBPA Decoded METAR 2018/12/19 10:00 UTC NOAA

Porto Alegre Aero-Porto , Brazil (SBPA) 30-00S 051-11W 3M
Dec 19, 2018 - 05:00 AM EST / 2018.12.19 1000 UTC
Wind: from the E (080 degrees) at 10 MPH (9 KT):0
Visibility: greater than 7 mile(s):0
Sky conditions: overcast
Temperature: 71 F (22 C)
Dew Point: 69 F (21 C)
Relative Humidity: 94%
Pressure (altimeter): 29.94 in. Hg (1014 hPa)
ob: SBPA 191000Z 08009KT 9999 BKN009 OVC035 22/21 Q1014
cycle: 10

Station Type Date Time Source
SBPA TAF 2018/12/19 12:09 UTC NOAA

TAF SBPA 190815Z 1912/2012 11007KT 9999 FEW012 BKN025 TX33/1917Z TN23 /2008Z
BECMG 1912/1914 SCT030
BECMG 1918/1920 11012KT FEW035 PROB40 2 000/2003 VCTS SCT035 FEW040CB
BECMG 2003/2005 09005KT FEW035 PROB40 200 9/2012 8000 RA SCT006 SCT033
RMK PDW


Example: see airport list